Time;durP1;ratioP1;P1;durP2;ratioP2;P2;SDS_P1;SDS_P2;PMS_P1;PMS_P2;Temp;Humidity;BMP_temperature;BMP_pressure;BME280_temperature;BME280_humidity;BME280_pressure;Samples;Min_cycle;Max_cycle;Signal;HPM_P1;HPM_P2
2021/05/31 00:00:41;;;;;;;10.23;4.97;;;;;;;15.91;57.34;102340.34;5053216;28;20091;-52
2021/05/31 00:03:08;;;;;;;11.95;5.30;;;;;;;15.83;57.58;102337.28;5034042;28;20049;-51
2021/05/31 00:05:36;;;;;;;10.10;4.93;;;;;;;15.83;57.22;102337.28;5045742;28;20072;-53
2021/05/31 00:08:04;;;;;;;7.78;4.50;;;;;;;15.80;57.56;102343.28;5053402;28;20438;-51
2021/05/31 00:10:32;;;;;;;13.98;5.90;;;;;;;15.86;57.59;102339.50;5053187;28;20060;-49
2021/05/31 00:13:00;;;;;;;10.95;5.40;;;;;;;15.85;57.57;102335.06;5053670;28;20095;-50
2021/05/31 00:15:31;;;;;;;11.93;5.28;;;;;;;15.74;57.59;102336.94;5053085;28;20414;-50
2021/05/31 00:18:00;;;;;;;10.10;4.97;;;;;;;15.71;57.62;102335.56;5053624;28;20065;-50
2021/05/31 00:20:28;;;;;;;10.35;5.07;;;;;;;15.69;57.83;102337.72;5053627;28;20065;-51
2021/05/31 00:22:55;;;;;;;10.95;4.90;;;;;;;15.66;58.21;102331.94;5053208;28;20076;-51
2021/05/31 00:25:24;;;;;;;12.00;5.50;;;;;;;15.68;57.95;102335.22;5053561;28;20044;-50
2021/05/31 00:27:53;;;;;;;10.60;5.28;;;;;;;15.63;58.04;102322.28;5053552;28;20127;-50
2021/05/31 00:30:23;;;;;;;10.65;4.93;;;;;;;15.68;58.13;102333.31;5052889;28;20503;-51
2021/05/31 00:32:52;;;;;;;11.15;5.13;;;;;;;15.74;57.86;102320.47;5053107;28;20128;-49
2021/05/31 00:35:20;;;;;;;14.20;5.97;;;;;;;15.77;57.78;102323.50;5054225;28;20049;-50
2021/05/31 00:37:48;;;;;;;14.23;6.05;;;;;;;15.76;57.65;102326.53;5053946;28;20113;-54
2021/05/31 00:40:17;;;;;;;11.85;5.13;;;;;;;15.65;58.00;102324.78;5055767;28;20411;-51
2021/05/31 00:42:44;;;;;;;13.25;5.38;;;;;;;15.59;58.45;102321.16;5055622;28;20045;-57
2021/05/31 00:45:12;;;;;;;12.57;5.82;;;;;;;15.58;58.70;102324.16;5056352;28;20049;-51
2021/05/31 00:47:40;;;;;;;9.52;5.18;;;;;;;15.53;58.82;102322.22;5055647;28;20053;-53
2021/05/31 00:50:09;;;;;;;10.98;5.45;;;;;;;15.54;58.91;102321.16;5053101;28;20041;-51
2021/05/31 00:52:37;;;;;;;11.70;5.82;;;;;;;15.57;58.60;102328.03;5053589;28;20048;-49
2021/05/31 00:55:06;;;;;;;10.45;5.20;;;;;;;15.45;59.14;102319.97;5053268;28;20041;-52
2021/05/31 00:57:33;;;;;;;13.43;6.28;;;;;;;15.37;59.36;102317.69;5052945;28;20041;-49
2021/05/31 01:00:01;;;;;;;11.32;6.22;;;;;;;15.28;59.74;102315.47;5067663;28;20095;-49
2021/05/31 01:02:29;;;;;;;10.88;6.05;;;;;;;15.30;60.00;102318.78;5052317;28;20499;-50
2021/05/31 01:04:56;;;;;;;11.43;5.93;;;;;;;15.33;59.89;102317.41;5051752;28;20048;-49
2021/05/31 01:07:39;;;;;;;10.35;5.43;;;;;;;15.19;60.25;102314.28;5052144;28;20060;-50
2021/05/31 01:10:18;;;;;;;12.02;5.55;;;;;;;15.17;60.42;102308.22;5052471;28;20041;-51
2021/05/31 01:13:10;;;;;;;11.55;6.28;;;;;;;15.16;60.47;102314.81;5067600;28;20052;-50
2021/05/31 01:15:44;;;;;;;15.35;6.70;;;;;;;15.18;60.53;102315.38;5052617;28;20466;-50
2021/05/31 01:18:29;;;;;;;10.23;5.65;;;;;;;15.10;60.80;102316.72;5052554;28;20507;-51
2021/05/31 01:21:21;;;;;;;13.18;6.57;;;;;;;15.13;60.78;102315.34;5067527;28;20091;-47
2021/05/31 01:23:59;;;;;;;15.10;6.63;;;;;;;15.10;60.96;102313.09;5040758;28;20041;-50
2021/05/31 01:26:41;;;;;;;12.00;5.95;;;;;;;15.06;61.18;102317.50;5067499;28;20053;-51
2021/05/31 01:29:10;;;;;;;12.00;5.78;;;;;;;14.99;61.30;102317.69;5051777;28;20110;-52
2021/05/31 01:31:57;;;;;;;10.30;6.43;;;;;;;15.04;61.24;102314.16;5067203;28;20103;-53
2021/05/31 01:34:27;;;;;;;14.55;6.60;;;;;;;15.02;61.56;102311.69;5052127;28;20049;-53
2021/05/31 01:36:59;;;;;;;13.85;7.03;;;;;;;15.03;61.20;102312.50;5067175;28;20037;-52
2021/05/31 01:39:30;;;;;;;12.68;6.13;;;;;;;15.01;61.57;102321.00;5051699;28;20041;-48
2021/05/31 01:41:58;;;;;;;14.15;6.32;;;;;;;14.95;61.87;102311.06;5051377;28;20049;-49
2021/05/31 01:44:26;;;;;;;12.73;7.07;;;;;;;14.96;61.93;102310.00;5067205;28;20557;-51
2021/05/31 01:46:54;;;;;;;14.98;6.90;;;;;;;14.88;61.99;102314.00;5051671;28;20064;-50
2021/05/31 01:49:22;;;;;;;12.85;7.25;;;;;;;14.82;62.21;102311.50;5067299;28;20098;-52
2021/05/31 01:51:50;;;;;;;13.60;6.95;;;;;;;14.74;62.57;102314.69;5067168;28;20573;-49
2021/05/31 01:54:19;;;;;;;14.70;7.57;;;;;;;14.57;63.36;102314.81;5051720;28;20076;-47
2021/05/31 01:56:49;;;;;;;12.05;6.70;;;;;;;14.60;63.43;102314.28;5067055;28;20111;-49
2021/05/31 01:59:21;;;;;;;10.52;6.50;;;;;;;14.74;62.84;102312.78;5051524;28;20095;-47
2021/05/31 02:01:50;;;;;;;14.20;7.25;;;;;;;14.85;62.51;102306.31;5051676;28;20103;-51
2021/05/31 02:04:17;;;;;;;12.82;6.53;;;;;;;14.87;62.40;102309.63;5051708;28;20122;-47
2021/05/31 02:06:45;;;;;;;12.70;7.30;;;;;;;14.83;62.48;102303.00;5051630;28;20037;-47
2021/05/31 02:09:13;;;;;;;13.57;7.18;;;;;;;14.79;62.46;102304.63;5051618;28;20446;-47
2021/05/31 02:12:07;;;;;;;12.02;7.32;;;;;;;14.76;62.63;102307.88;5051017;28;20060;-47
2021/05/31 02:14:48;;;;;;;13.27;7.78;;;;;;;14.77;62.70;102304.06;5051539;28;20053;-49
2021/05/31 02:17:40;;;;;;;19.48;7.32;;;;;;;14.72;62.74;102304.00;5051848;28;20049;-46
2021/05/31 02:20:17;;;;;;;14.00;7.28;;;;;;;14.72;62.85;102300.41;5037866;28;20045;-48
2021/05/31 02:22:46;;;;;;;12.60;7.50;;;;;;;14.73;63.28;102302.09;5067184;28;20041;-49
2021/05/31 02:25:15;;;;;;;14.38;8.02;;;;;;;14.70;62.76;102297.94;5037325;28;20037;-49
2021/05/31 02:27:44;;;;;;;14.43;8.07;;;;;;;14.61;63.22;102299.50;5051346;28;20049;-50
2021/05/31 02:30:13;;;;;;;13.15;7.57;;;;;;;14.59;63.57;102298.91;5067077;28;20040;-49
2021/05/31 02:32:59;;;;;;;12.77;7.60;;;;;;;14.67;63.08;102303.94;5051409;28;20504;-49
2021/05/31 02:35:28;;;;;;;16.07;7.80;;;;;;;14.70;63.25;102303.44;5051426;28;20464;-51
2021/05/31 02:37:57;;;;;;;13.73;7.90;;;;;;;14.68;62.85;102302.88;5051333;28;20049;-53
2021/05/31 02:40:26;;;;;;;14.10;8.00;;;;;;;14.61;63.39;102304.97;5050552;28;20048;-50
2021/05/31 02:42:56;;;;;;;12.45;7.63;;;;;;;14.49;63.66;102303.19;5051378;28;20073;-52
2021/05/31 02:45:25;;;;;;;14.77;8.38;;;;;;;14.42;64.02;102302.56;5051470;28;20064;-51
2021/05/31 02:47:54;;;;;;;15.05;8.57;;;;;;;14.32;64.42;102313.41;5051307;28;20450;-51
2021/05/31 02:50:23;;;;;;;13.63;8.50;;;;;;;14.18;64.74;102304.75;5051461;28;20053;-50
2021/05/31 02:52:50;;;;;;;16.70;9.00;;;;;;;14.07;65.66;102306.56;5053098;28;20084;-49
2021/05/31 02:55:22;;;;;;;16.38;8.57;;;;;;;14.10;65.61;102312.59;5053498;28;20118;-49
2021/05/31 02:57:51;;;;;;;15.48;8.35;;;;;;;14.16;65.48;102308.84;5054901;28;20056;-49
2021/05/31 03:00:21;;;;;;;15.27;7.88;;;;;;;14.25;65.22;102307.31;5054779;28;20518;-49
2021/05/31 03:02:50;;;;;;;18.23;8.93;;;;;;;14.31;64.86;102309.03;5055173;28;20075;-49
2021/05/31 03:05:23;;;;;;;14.68;8.27;;;;;;;14.27;64.96;102310.63;5054966;28;20033;-52
2021/05/31 03:07:50;;;;;;;14.82;8.45;;;;;;;14.19;65.07;102308.31;5054462;28;20037;-50
2021/05/31 03:10:18;;;;;;;14.15;8.20;;;;;;;14.19;65.23;102305.56;5054017;28;20053;-49
2021/05/31 03:12:46;;;;;;;15.25;8.73;;;;;;;14.16;65.00;102306.09;5054302;28;20041;-49
2021/05/31 03:15:18;;;;;;;20.95;9.05;;;;;;;14.05;65.42;102308.72;5054797;28;20041;-50
2021/05/31 03:17:46;;;;;;;15.60;8.95;;;;;;;14.03;65.58;102302.66;5050246;28;20397;-49
2021/05/31 03:20:16;;;;;;;16.48;9.55;;;;;;;14.04;65.57;102306.22;5050940;28;20045;-49
2021/05/31 03:22:44;;;;;;;15.38;8.52;;;;;;;14.01;65.82;102296.59;5054390;28;20504;-50
2021/05/31 03:25:12;;;;;;;17.35;9.70;;;;;;;14.03;66.01;102299.09;5050259;28;20217;-49
2021/05/31 03:27:40;;;;;;;17.45;10.10;;;;;;;14.03;65.85;102302.66;5054340;28;20053;-50
2021/05/31 03:30:10;;;;;;;13.93;8.68;;;;;;;14.04;65.60;102308.97;5054400;28;20045;-50
2021/05/31 03:32:39;;;;;;;14.15;8.65;;;;;;;13.96;65.92;102310.22;5055074;28;20041;-52
2021/05/31 03:35:08;;;;;;;16.73;9.73;;;;;;;13.94;66.37;102306.09;5074535;28;20076;-51
2021/05/31 03:37:37;;;;;;;14.48;9.55;;;;;;;13.94;66.31;102304.19;5062539;28;20452;-51
2021/05/31 03:40:06;;;;;;;18.73;10.85;;;;;;;13.91;66.18;102301.94;5073605;28;20040;-52
2021/05/31 03:42:34;;;;;;;17.95;10.38;;;;;;;13.87;66.26;102302.72;5074021;28;20509;-49
2021/05/31 03:45:02;;;;;;;15.50;9.32;;;;;;;13.83;66.72;102308.72;5074535;28;20437;-50
2021/05/31 03:47:30;;;;;;;17.58;9.85;;;;;;;13.84;66.93;102312.28;5074079;28;20076;-53
2021/05/31 03:49:58;;;;;;;19.38;9.38;;;;;;;13.85;66.74;102305.69;5074435;28;20072;-52
2021/05/31 03:52:26;;;;;;;15.18;9.75;;;;;;;13.89;66.64;102303.28;5073748;28;20072;-50
2021/05/31 03:54:53;;;;;;;16.95;9.35;;;;;;;13.85;66.62;102312.03;5073665;28;20052;-48
2021/05/31 03:57:21;;;;;;;17.05;10.00;;;;;;;13.85;66.96;102308.44;5073839;28;20511;-51
2021/05/31 03:59:50;;;;;;;16.83;10.00;;;;;;;13.83;67.13;102305.16;5073927;28;20091;-49
2021/05/31 04:02:19;;;;;;;16.73;10.27;;;;;;;13.76;67.55;102302.59;5073120;28;20519;-48
2021/05/31 04:04:51;;;;;;;17.85;10.27;;;;;;;13.80;67.49;102311.09;5056256;28;20072;-49
2021/05/31 04:12:54;;;;;;;13.80;9.65;;;;;;;13.78;67.38;102313.25;5053343;28;20048;-49
2021/05/31 04:15:23;;;;;;;18.25;10.25;;;;;;;13.67;68.50;102311.50;5053551;28;20052;-48
2021/05/31 04:17:50;;;;;;;21.42;10.30;;;;;;;13.64;67.95;102313.66;5053271;28;20041;-49
2021/05/31 04:20:19;;;;;;;15.40;9.05;;;;;;;13.71;68.42;102313.47;5053198;28;20052;-50
2021/05/31 04:22:47;;;;;;;15.90;9.68;;;;;;;13.81;67.45;102308.13;5053033;28;20048;-49
2021/05/31 04:25:15;;;;;;;16.75;10.30;;;;;;;13.91;67.37;102307.44;5053162;28;20067;-50
2021/05/31 04:27:43;;;;;;;20.15;10.75;;;;;;;13.96;67.08;102314.91;5048803;28;20056;-51
2021/05/31 04:30:11;;;;;;;16.75;10.32;;;;;;;13.87;67.50;102300.78;5049757;28;20053;-50
2021/05/31 04:32:39;;;;;;;17.60;10.18;;;;;;;13.88;67.79;102305.22;5053605;28;20144;-50
2021/05/31 04:35:07;;;;;;;19.48;9.77;;;;;;;13.96;67.56;102293.78;5053247;28;20076;-48
2021/05/31 04:37:35;;;;;;;18.85;10.52;;;;;;;14.01;67.05;102307.56;5052582;28;20095;-49
2021/05/31 04:40:04;;;;;;;18.08;10.68;;;;;;;14.11;66.83;102300.56;5053136;28;20112;-48
2021/05/31 04:42:31;;;;;;;16.85;10.13;;;;;;;14.13;66.69;102295.66;5038742;28;20115;-49
2021/05/31 04:44:59;;;;;;;14.77;9.98;;;;;;;14.01;66.82;102304.81;5052894;28;20460;-48
2021/05/31 04:47:27;;;;;;;16.67;9.93;;;;;;;14.02;67.03;102303.75;5052608;28;20381;-49
2021/05/31 04:49:55;;;;;;;16.25;10.38;;;;;;;14.03;67.14;102308.13;5053146;28;20060;-50
2021/05/31 04:52:23;;;;;;;16.98;11.05;;;;;;;14.09;67.44;102299.97;5051994;28;20167;-49
2021/05/31 04:54:51;;;;;;;19.30;11.52;;;;;;;14.13;67.28;102301.94;5052604;28;20186;-51
2021/05/31 04:57:19;;;;;;;19.83;11.07;;;;;;;14.20;66.98;102296.28;5052555;28;20045;-49
2021/05/31 04:59:47;;;;;;;18.02;11.38;;;;;;;14.25;66.61;102301.81;5052630;28;20534;-49
2021/05/31 05:02:14;;;;;;;19.95;10.95;;;;;;;14.25;66.42;102302.63;5052352;28;20388;-47
2021/05/31 05:04:42;;;;;;;19.05;11.00;;;;;;;14.26;66.68;102303.47;5052506;28;20083;-48
2021/05/31 05:07:12;;;;;;;19.90;11.75;;;;;;;14.28;66.58;102301.28;5047360;28;20072;-47
2021/05/31 05:09:40;;;;;;;17.60;10.02;;;;;;;14.14;67.27;102305.50;5046793;28;20073;-48
2021/05/31 05:12:08;;;;;;;16.42;11.15;;;;;;;14.03;67.50;102294.44;5042084;28;20041;-47
2021/05/31 05:14:36;;;;;;;18.88;11.52;;;;;;;13.98;67.56;102297.13;5050201;28;20045;-48
2021/05/31 05:17:04;;;;;;;19.38;12.48;;;;;;;13.99;68.13;102300.69;5052881;28;20037;-48
2021/05/31 05:19:32;;;;;;;16.38;10.15;;;;;;;14.03;68.05;102308.13;5052683;28;20049;-49
2021/05/31 05:22:00;;;;;;;15.98;11.02;;;;;;;14.12;67.51;102297.56;5065424;28;20083;-49
2021/05/31 05:24:28;;;;;;;19.02;10.02;;;;;;;14.20;67.38;102299.03;5052072;28;20044;-49
2021/05/31 05:26:56;;;;;;;17.33;11.27;;;;;;;14.30;66.76;102293.66;5055850;28;20051;-51
2021/05/31 05:29:24;;;;;;;18.27;10.70;;;;;;;14.41;66.30;102300.09;5072419;28;20068;-47
2021/05/31 05:31:51;;;;;;;20.20;13.07;;;;;;;14.46;66.32;102291.91;5071869;28;20049;-50
2021/05/31 05:34:19;;;;;;;21.13;11.85;;;;;;;14.48;66.07;102300.72;5071775;28;20072;-49
2021/05/31 05:36:52;;;;;;;19.75;13.15;;;;;;;14.47;66.52;102294.38;4712889;28;9999738;-49
2021/05/31 05:39:47;;;;;;;16.10;10.45;;;;;;;14.46;66.25;102298.22;5069785;28;20083;-50
2021/05/31 05:42:32;;;;;;;20.45;11.63;;;;;;;14.48;66.33;102295.22;5069415;28;20495;-50
2021/05/31 05:47:46;;;;;;;21.25;12.82;;;;;;;14.51;66.14;102296.63;5069528;28;20044;-50
2021/05/31 05:50:19;;;;;;;18.48;11.23;;;;;;;14.52;66.22;102290.03;5068640;28;20071;-49
2021/05/31 05:52:47;;;;;;;21.17;12.90;;;;;;;14.48;66.40;102293.31;5069892;28;20036;-50
2021/05/31 05:55:16;;;;;;;32.47;13.05;;;;;;;14.53;66.44;102291.69;5069759;28;20427;-53
2021/05/31 05:57:46;;;;;;;20.92;11.85;;;;;;;14.61;65.89;102300.31;5069852;28;20049;-51
2021/05/31 06:00:17;;;;;;;17.85;11.27;;;;;;;14.64;65.47;102293.47;5069690;28;20048;-53
2021/05/31 06:02:45;;;;;;;19.83;11.43;;;;;;;14.68;65.24;102286.41;5066738;28;20074;-51
2021/05/31 06:05:14;;;;;;;16.80;11.88;;;;;;;14.73;65.51;102291.09;5049331;28;20527;-49
2021/05/31 06:07:42;;;;;;;16.70;10.80;;;;;;;14.80;65.23;102292.56;5049015;28;20730;-50
2021/05/31 06:10:11;;;;;;;15.18;10.23;;;;;;;14.88;64.95;102294.81;5051455;28;20044;-50
2021/05/31 06:12:39;;;;;;;19.98;14.05;;;;;;;14.89;65.81;102291.00;5051729;28;20045;-49
2021/05/31 06:15:08;;;;;;;22.52;13.88;;;;;;;14.90;64.94;102298.13;5051391;28;20045;-49
2021/05/31 06:17:36;;;;;;;31.67;14.00;;;;;;;14.93;65.09;102293.19;5050927;28;20447;-48
2021/05/31 06:20:05;;;;;;;17.67;10.63;;;;;;;14.97;64.93;102297.09;5051277;28;20041;-48
2021/05/31 06:22:38;;;;;;;16.98;10.15;;;;;;;15.05;64.55;102299.34;5051395;28;20052;-50
2021/05/31 06:25:10;;;;;;;24.85;14.18;;;;;;;15.04;64.89;102292.22;5051907;28;20447;-50
2021/05/31 06:27:43;;;;;;;20.33;13.27;;;;;;;15.04;64.79;102290.28;5055300;28;20041;-50
2021/05/31 06:30:12;;;;;;;22.20;12.10;;;;;;;15.07;64.98;102291.69;5055065;28;20522;-50
2021/05/31 06:32:40;;;;;;;19.58;13.15;;;;;;;15.11;64.92;102290.06;5054767;28;20098;-53
2021/05/31 06:35:08;;;;;;;22.70;14.05;;;;;;;15.12;64.71;102284.28;5055380;28;20389;-53
2021/05/31 06:37:38;;;;;;;21.60;12.65;;;;;;;15.17;64.54;102286.25;5055330;28;20075;-52
2021/05/31 06:40:10;;;;;;;18.70;11.15;;;;;;;15.22;64.34;102286.28;5053993;28;20045;-57
2021/05/31 06:42:42;;;;;;;23.20;12.60;;;;;;;15.34;64.06;102283.34;5055102;28;20059;-54
2021/05/31 06:45:20;;;;;;;21.70;10.95;;;;;;;15.44;63.17;102282.59;5055390;28;20052;-53
2021/05/31 06:47:48;;;;;;;17.35;9.73;;;;;;;15.48;62.61;102283.72;5054875;28;20051;-51
2021/05/31 06:50:17;;;;;;;16.95;8.75;;;;;;;15.53;62.62;102283.75;5055282;28;20519;-52
2021/05/31 06:52:44;;;;;;;12.75;7.68;;;;;;;15.54;62.62;102286.25;5041030;28;20029;-51
2021/05/31 06:55:15;;;;;;;19.75;11.73;;;;;;;15.55;62.50;102281.56;5054416;28;20072;-50
2021/05/31 06:57:43;;;;;;;19.73;9.05;;;;;;;15.59;62.53;102276.38;5054450;28;20560;-50
2021/05/31 07:00:12;;;;;;;23.73;11.18;;;;;;;15.63;62.46;102272.81;5054665;28;20399;-53
2021/05/31 07:02:40;;;;;;;16.23;9.45;;;;;;;15.66;62.27;102277.81;5054055;28;20068;-51
2021/05/31 07:05:09;;;;;;;16.98;9.98;;;;;;;15.69;62.25;102270.94;5054964;28;20049;-52
2021/05/31 07:07:37;;;;;;;19.10;10.68;;;;;;;15.71;62.29;102277.03;5054348;28;20049;-52
2021/05/31 07:10:08;;;;;;;16.90;10.98;;;;;;;15.75;61.69;102273.50;5054093;28;20072;-50
2021/05/31 07:12:35;;;;;;;19.30;10.63;;;;;;;15.81;61.58;102273.50;5054218;28;20041;-52
2021/05/31 07:15:07;;;;;;;18.48;10.68;;;;;;;15.85;60.93;102274.59;5054395;28;20052;-52
2021/05/31 07:17:36;;;;;;;20.80;11.63;;;;;;;15.88;61.10;102263.09;5054499;28;20487;-50
2021/05/31 07:20:12;;;;;;;19.63;11.68;;;;;;;15.94;60.94;102273.00;5054636;28;20048;-55
2021/05/31 07:22:42;;;;;;;18.00;10.25;;;;;;;15.99;60.97;102270.25;5054060;28;20120;-52
2021/05/31 07:25:11;;;;;;;17.65;10.00;;;;;;;16.02;61.11;102263.41;5054418;28;20045;-49
2021/05/31 07:27:39;;;;;;;19.75;11.02;;;;;;;16.09;60.27;102266.72;5054151;28;20118;-59
2021/05/31 07:30:08;;;;;;;20.33;10.88;;;;;;;16.12;59.83;102264.28;5053930;28;20092;-51
2021/05/31 07:32:37;;;;;;;17.77;9.45;;;;;;;16.18;59.84;102256.88;5069448;28;20091;-49
2021/05/31 07:35:06;;;;;;;28.70;10.57;;;;;;;16.23;60.10;102258.81;5069232;28;20499;-50
2021/05/31 07:37:35;;;;;;;17.10;9.70;;;;;;;16.28;59.67;102262.38;5052730;28;20553;-50
2021/05/31 07:40:04;;;;;;;23.92;10.45;;;;;;;16.30;59.95;102259.38;5054264;28;20052;-49
2021/05/31 07:42:32;;;;;;;22.67;10.40;;;;;;;16.32;59.00;102262.69;5052633;28;20041;-51
2021/05/31 07:45:00;;;;;;;17.08;9.50;;;;;;;16.35;59.24;102256.63;5053696;28;20075;-51
2021/05/31 07:47:27;;;;;;;20.98;11.00;;;;;;;16.44;58.92;102257.75;5053830;28;20499;-49
2021/05/31 07:49:55;;;;;;;18.83;10.48;;;;;;;16.50;58.01;102256.69;5054170;28;20073;-50
2021/05/31 07:52:28;;;;;;;23.23;9.57;;;;;;;16.54;59.10;102255.00;5053822;28;20048;-48
2021/05/31 07:54:56;;;;;;;19.98;9.68;;;;;;;16.67;58.52;102258.31;5053909;28;20048;-49
2021/05/31 07:57:24;;;;;;;18.13;9.35;;;;;;;16.71;58.01;102248.44;5053457;28;20218;-50
2021/05/31 07:59:53;;;;;;;26.95;10.60;;;;;;;16.73;57.80;102246.22;5053543;28;20475;-53
2021/05/31 08:02:22;;;;;;;17.00;8.82;;;;;;;16.74;58.62;102245.13;5053695;28;20048;-50
2021/05/31 08:04:50;;;;;;;35.60;11.80;;;;;;;16.82;58.28;102247.38;5053827;28;20045;-49
2021/05/31 08:07:18;;;;;;;22.25;9.70;;;;;;;16.86;57.87;102251.22;5053839;28;20052;-50
2021/05/31 08:09:48;;;;;;;18.55;9.00;;;;;;;16.94;57.73;102253.41;5053641;28;20483;-50
2021/05/31 08:12:15;;;;;;;16.67;9.07;;;;;;;16.99;56.92;102238.81;5053811;28;20529;-47
2021/05/31 08:14:43;;;;;;;20.38;9.82;;;;;;;17.04;56.01;102253.41;5053025;28;20037;-50
2021/05/31 08:17:11;;;;;;;20.50;9.27;;;;;;;17.12;55.07;102245.69;5053740;28;20038;-47
2021/05/31 08:19:38;;;;;;;18.48;8.90;;;;;;;17.19;55.11;102248.97;5053829;28;20048;-48
2021/05/31 08:22:06;;;;;;;17.90;9.68;;;;;;;17.26;55.38;102249.53;5039436;28;20441;-48
2021/05/31 08:24:34;;;;;;;20.98;8.70;;;;;;;17.32;53.89;102242.91;5053413;28;20090;-48
2021/05/31 08:27:02;;;;;;;17.13;7.38;;;;;;;17.35;53.14;102247.03;5053176;28;20399;-49
2021/05/31 08:29:30;;;;;;;16.98;7.25;;;;;;;17.41;52.82;102243.16;5053016;28;20044;-50
2021/05/31 08:31:58;;;;;;;23.55;8.55;;;;;;;17.40;54.21;102234.06;5053015;28;20099;-48
2021/05/31 08:34:27;;;;;;;22.60;8.68;;;;;;;17.37;53.71;102234.63;5053450;28;20076;-47
2021/05/31 08:36:54;;;;;;;12.02;6.70;;;;;;;17.36;51.25;102241.22;5053204;28;20036;-49
2021/05/31 08:39:22;;;;;;;15.52;6.10;;;;;;;17.38;51.05;102244.53;5052948;28;20533;-51
2021/05/31 08:41:51;;;;;;;15.57;8.07;;;;;;;17.44;51.41;102237.91;5048679;28;20042;-49
2021/05/31 08:44:30;;;;;;;17.48;7.40;;;;;;;17.46;51.70;102234.88;5052414;28;20045;-50
2021/05/31 08:47:02;;;;;;;17.60;6.60;;;;;;;17.53;50.52;102234.56;5052785;28;20091;-50
2021/05/31 08:49:30;;;;;;;23.10;8.70;;;;;;;17.58;52.71;102227.13;5052044;28;20072;-50
2021/05/31 08:51:58;;;;;;;22.13;8.48;;;;;;;17.60;51.87;102221.31;5064238;28;20041;-50
2021/05/31 08:54:26;;;;;;;14.45;7.03;;;;;;;17.61;51.95;102231.25;5045182;28;20418;-49
2021/05/31 08:56:54;;;;;;;15.27;7.63;;;;;;;17.64;52.15;102226.00;5058756;28;20083;-49
2021/05/31 08:59:21;;;;;;;16.85;7.50;;;;;;;17.68;52.08;102229.03;5052547;28;20052;-52
2021/05/31 09:01:49;;;;;;;11.80;5.63;;;;;;;17.72;47.92;102230.09;5052940;28;20545;-50
2021/05/31 09:04:17;;;;;;;11.68;6.07;;;;;;;17.90;47.16;102222.34;5052299;28;20071;-54
2021/05/31 09:07:01;;;;;;;18.88;7.07;;;;;;;18.05;47.98;102219.50;5052782;28;20079;-51
2021/05/31 09:09:42;;;;;;;11.88;5.22;;;;;;;18.08;46.59;102213.41;5052378;28;20072;-49
2021/05/31 09:12:12;;;;;;;11.48;5.35;;;;;;;18.19;43.78;102212.25;5051975;28;20049;-51
2021/05/31 09:14:43;;;;;;;18.73;7.32;;;;;;;18.19;44.45;102208.66;5052569;28;20068;-53
2021/05/31 09:17:10;;;;;;;12.52;5.68;;;;;;;18.17;45.05;102208.94;5052850;28;20071;-50
2021/05/31 09:19:47;;;;;;;10.02;4.40;;;;;;;18.19;46.21;102200.41;5052510;28;20507;-51
2021/05/31 09:22:15;;;;;;;12.02;5.00;;;;;;;18.20;45.04;102205.59;5052207;28;20102;-53
2021/05/31 09:24:59;;;;;;;16.55;6.75;;;;;;;18.19;48.63;102205.91;5052328;28;20049;-50
2021/05/31 09:27:28;;;;;;;9.68;4.63;;;;;;;18.20;45.85;102205.59;5052037;28;20048;-50
2021/05/31 09:29:57;;;;;;;9.10;4.40;;;;;;;18.23;44.40;102201.44;5052313;28;20102;-49
2021/05/31 09:32:25;;;;;;;17.10;6.13;;;;;;;18.33;44.40;102200.56;5052550;28;20041;-49
2021/05/31 09:35:01;;;;;;;17.17;6.55;;;;;;;18.37;48.30;102207.97;5052233;28;20496;-49
2021/05/31 09:37:29;;;;;;;11.15;5.00;;;;;;;18.42;46.48;102198.84;5052320;28;20126;-51
2021/05/31 09:40:03;;;;;;;12.60;5.40;;;;;;;18.47;46.59;102202.41;5052116;28;20487;-50
2021/05/31 09:42:32;;;;;;;18.90;7.70;;;;;;;18.50;48.17;102206.53;5051782;28;20049;-51
2021/05/31 09:45:06;;;;;;;12.20;5.07;;;;;;;18.48;45.90;102195.75;5052197;28;20048;-51
2021/05/31 09:47:36;;;;;;;9.57;4.53;;;;;;;18.48;44.13;102193.00;5051957;28;20060;-51
2021/05/31 09:50:06;;;;;;;19.08;7.43;;;;;;;18.51;50.64;102189.66;5052381;28;20041;-51
2021/05/31 09:52:35;;;;;;;8.57;3.85;;;;;;;18.59;42.53;102190.16;5051872;28;20103;-51
2021/05/31 09:55:09;;;;;;;9.32;4.95;;;;;;;18.69;41.13;102193.66;5051728;28;20063;-51
2021/05/31 09:57:39;;;;;;;8.40;3.90;;;;;;;18.73;41.55;102189.19;5051558;28;20033;-48
2021/05/31 10:00:19;;;;;;;11.30;4.63;;;;;;;18.73;43.47;102182.84;5051522;28;20045;-50
2021/05/31 10:10:30;;;;;;;15.10;5.20;;;;;;;18.84;41.63;102183.63;5051544;28;20099;-51
2021/05/31 10:12:59;;;;;;;10.75;4.70;;;;;;;18.81;40.85;102182.25;5051447;28;20503;-54
2021/05/31 10:15:31;;;;;;;13.68;5.82;;;;;;;18.85;42.29;102188.00;5052054;28;20045;-52
2021/05/31 10:18:00;;;;;;;8.18;4.40;;;;;;;19.03;40.40;102176.25;5051852;28;20045;-52
2021/05/31 10:20:29;;;;;;;11.60;4.70;;;;;;;19.18;41.06;102182.72;5047558;28;20049;-50
2021/05/31 10:23:02;;;;;;;12.73;4.75;;;;;;;19.22;41.45;102173.56;4351675;28;10000674;-53
2021/05/31 10:25:30;;;;;;;9.07;4.93;;;;;;;19.25;40.43;102172.16;5048986;28;20056;-54
2021/05/31 10:28:08;;;;;;;14.88;6.18;;;;;;;19.20;46.08;102163.91;5049272;28;20084;-48
2021/05/31 10:30:43;;;;;;;11.43;5.25;;;;;;;19.10;43.12;102159.31;5049105;28;20049;-53
2021/05/31 10:33:13;;;;;;;12.90;5.25;;;;;;;19.05;43.45;102159.34;5048886;28;20397;-50
2021/05/31 10:35:41;;;;;;;13.68;5.25;;;;;;;19.08;42.78;102151.31;5064408;28;20045;-50
2021/05/31 10:38:14;;;;;;;11.00;4.93;;;;;;;19.15;43.16;102148.22;5039974;28;20041;-47
2021/05/31 10:40:45;;;;;;;13.55;5.55;;;;;;;19.24;44.00;102151.97;5047801;28;20098;-48
2021/05/31 10:43:19;;;;;;;12.60;6.45;;;;;;;19.40;43.84;102152.59;5047053;28;20438;-51
2021/05/31 10:45:48;;;;;;;10.68;4.97;;;;;;;19.49;43.19;102147.25;5049004;28;20076;-54
2021/05/31 10:48:21;;;;;;;10.93;5.32;;;;;;;19.50;42.83;102146.94;5049050;28;20057;-52
2021/05/31 10:51:00;;;;;;;9.85;4.43;;;;;;;19.55;41.70;102138.59;5048750;28;20133;-50
2021/05/31 10:53:37;;;;;;;10.18;4.80;;;;;;;19.61;40.49;102146.81;5048608;28;20091;-50
2021/05/31 10:56:16;;;;;;;8.73;4.22;;;;;;;19.64;40.77;102147.03;5049176;28;20138;-49
2021/05/31 10:58:57;;;;;;;9.32;4.65;;;;;;;19.62;41.35;102154.00;5048743;28;20083;-50
2021/05/31 11:01:45;;;;;;;11.00;5.18;;;;;;;19.47;42.02;102142.00;5045058;28;20106;-51
2021/05/31 11:04:22;;;;;;;11.18;5.90;;;;;;;19.53;43.03;102140.84;5050573;28;20418;-51
2021/05/31 11:06:52;;;;;;;11.60;5.13;;;;;;;19.53;46.81;102143.59;5049271;28;20127;-50
2021/05/31 11:09:29;;;;;;;13.68;6.05;;;;;;;19.56;45.99;102140.22;5048126;28;20053;-48
2021/05/31 11:12:00;;;;;;;14.02;5.75;;;;;;;19.75;43.32;102133.94;5044184;28;20042;-51
2021/05/31 11:14:36;;;;;;;10.82;5.57;;;;;;;19.84;44.35;102129.34;5045908;28;20041;-49
2021/05/31 11:17:16;;;;;;;12.23;5.63;;;;;;;19.86;43.32;102126.31;5039857;28;20376;-50
2021/05/31 11:19:48;;;;;;;13.95;6.80;;;;;;;19.94;43.62;102120.09;5054562;28;20538;-48
2021/05/31 11:22:22;;;;;;;16.27;9.05;;;;;;;19.92;44.42;102114.88;5054217;28;20057;-50
2021/05/31 11:24:52;;;;;;;13.18;6.18;;;;;;;19.88;45.22;102119.34;5054529;28;20091;-51
2021/05/31 11:27:31;;;;;;;14.57;6.82;;;;;;;19.84;45.51;102109.19;5054037;28;20049;-49
2021/05/31 11:30:00;;;;;;;13.45;7.28;;;;;;;19.82;45.30;102106.75;5054557;28;20483;-48
2021/05/31 11:32:28;;;;;;;14.38;6.70;;;;;;;19.85;44.56;102102.53;5054125;28;20072;-50
2021/05/31 11:35:03;;;;;;;14.85;7.25;;;;;;;19.89;45.00;102096.13;5054450;28;20040;-49
2021/05/31 11:37:41;;;;;;;15.05;7.43;;;;;;;19.97;45.34;102095.44;5054022;28;20049;-49
2021/05/31 11:40:25;;;;;;;11.65;6.25;;;;;;;20.06;42.29;102090.03;5054060;28;20053;-51
2021/05/31 11:43:02;;;;;;;12.35;5.90;;;;;;;20.13;42.00;102097.94;5054124;28;20442;-49
2021/05/31 11:45:33;;;;;;;;;;;;;;;20.10;43.04;102093.81;5054457;28;20546;-49